createdAt,value
2017-12-19T00:00:38.485Z,39.9
2017-12-19T00:01:40.103Z,40.2
2017-12-19T00:02:41.446Z,39.7
2017-12-19T00:03:43.066Z,39.7
2017-12-19T00:04:44.682Z,39.8
2017-12-19T00:05:46.028Z,39.8
2017-12-19T00:06:47.622Z,39.7
2017-12-19T00:07:49.519Z,39.7
2017-12-19T00:08:51.137Z,39.8
2017-12-19T00:09:52.757Z,39.7
2017-12-19T00:10:54.651Z,39.9
2017-12-19T00:11:56.545Z,40.1
2017-12-19T00:12:58.440Z,39.6
2017-12-19T00:14:00.043Z,39.9
2017-12-19T00:15:01.938Z,39.9
2017-12-19T00:16:03.558Z,39.8
2017-12-19T00:17:05.179Z,39.8
2017-12-19T00:18:07.075Z,39.7
2017-12-19T00:19:08.669Z,39.9
2017-12-19T00:20:10.565Z,39.8
2017-12-19T00:21:12.164Z,39.9
2017-12-19T00:22:13.759Z,39.9
2017-12-19T00:23:15.378Z,39.8
2017-12-19T00:24:17.276Z,39.9
2017-12-19T00:25:19.173Z,39.7
2017-12-19T00:26:20.772Z,39.8
2017-12-19T00:27:22.394Z,39.8
2017-12-19T00:28:24.292Z,40
2017-12-19T00:29:25.919Z,39.9
2017-12-19T00:30:27.538Z,39.7
2017-12-19T00:31:28.866Z,39.9
2017-12-19T00:32:30.184Z,39.9
2017-12-19T00:33:32.080Z,39.6
2017-12-19T00:34:33.976Z,39.9
2017-12-19T00:35:35.019Z,39.7
2017-12-19T00:36:36.338Z,40
2017-12-19T00:37:37.957Z,39.9
2017-12-19T00:38:39.579Z,39.9
2017-12-19T00:39:41.201Z,39.7
2017-12-19T00:40:43.097Z,39.7
2017-12-19T00:41:44.716Z,40
2017-12-19T00:42:46.614Z,39.6
2017-12-19T00:43:48.512Z,39.9
2017-12-19T00:44:50.411Z,40.3
2017-12-19T00:45:52.307Z,39.7
2017-12-19T00:46:53.933Z,40.1
2017-12-19T00:47:55.829Z,39.5
2017-12-19T00:48:57.727Z,40.1
2017-12-19T00:49:59.625Z,39.6
2017-12-19T00:51:00.946Z,39.7
2017-12-19T00:52:02.013Z,40.3
2017-12-19T00:53:03.634Z,39.6
2017-12-19T00:54:05.528Z,40.5
2017-12-19T00:55:06.845Z,39.7
2017-12-19T00:56:08.742Z,39.9
2017-12-19T00:57:10.094Z,39.6
2017-12-19T00:58:11.435Z,40
2017-12-19T00:59:13.058Z,40.2
2017-12-19T01:00:14.952Z,40.3
2017-12-19T01:03:17.091Z,40
2017-12-19T01:04:18.986Z,39.5
2017-12-19T01:05:20.881Z,39.9
2017-12-19T01:06:21.923Z,39.7
2017-12-19T01:07:23.821Z,39.6
2017-12-19T01:08:25.446Z,39.9
2017-12-19T01:09:26.756Z,39.5
2017-12-19T01:10:28.374Z,39.8
2017-12-19T01:11:29.971Z,39.7
2017-12-19T01:12:31.571Z,40.4
2017-12-19T01:13:33.460Z,40.2
2017-12-19T01:14:35.363Z,39.6
2017-12-19T01:15:37.257Z,39.8
2017-12-19T01:16:38.569Z,39.6
2017-12-19T01:17:40.464Z,39.7
2017-12-19T01:18:42.059Z,39.7
2017-12-19T01:19:43.379Z,40.2
2017-12-19T01:20:44.697Z,39.9
2017-12-19T01:21:46.017Z,40
2017-12-19T01:22:47.944Z,39.5
2017-12-19T01:23:49.839Z,40.3
2017-12-19T01:24:51.178Z,39.7
2017-12-19T01:25:52.800Z,39.7
2017-12-19T01:26:54.116Z,39.9
2017-12-19T01:27:55.743Z,39.9
2017-12-19T01:28:57.639Z,40.3
2017-12-19T01:29:59.235Z,39.6
2017-12-19T01:31:00.833Z,40.1
2017-12-19T01:32:02.173Z,40.2
2017-12-19T01:33:04.069Z,40
2017-12-19T01:34:05.406Z,40
2017-12-19T01:35:07.022Z,40.2
2017-12-19T01:36:08.621Z,39.9
2017-12-19T01:37:10.522Z,39.8
2017-12-19T01:38:12.132Z,39.8
2017-12-19T01:39:13.748Z,40.3
2017-12-19T01:40:15.367Z,40
2017-12-19T01:41:16.987Z,40.4
2017-12-19T01:42:18.882Z,39.6
2017-12-19T01:43:20.202Z,40
2017-12-19T01:44:21.824Z,40
2017-12-19T01:45:23.725Z,40.1
2017-12-19T01:46:25.342Z,39.9
2017-12-19T01:47:27.236Z,39.7
2017-12-19T01:48:28.852Z,39.9
2017-12-19T01:49:30.748Z,39.7
2017-12-19T01:50:32.367Z,40.3
2017-12-19T01:51:33.985Z,40
2017-12-19T01:52:35.651Z,39.9
2017-12-19T01:53:36.973Z,40.2
2017-12-19T01:54:38.608Z,40
2017-12-19T01:55:40.503Z,40
2017-12-19T01:56:42.403Z,40.3
2017-12-19T01:57:44.019Z,39.9
2017-12-19T01:58:45.636Z,40.5
2017-12-19T01:59:47.254Z,40.2
2017-12-19T02:00:49.150Z,39.5
2017-12-19T02:01:50.470Z,39.8
2017-12-19T02:02:51.788Z,40.3
2017-12-19T02:03:53.403Z,39.9
2017-12-19T02:04:55.298Z,40
2017-12-19T02:05:56.896Z,40.3
2017-12-19T02:06:58.790Z,40.5
2017-12-19T02:08:00.461Z,39.6
2017-12-19T02:09:01.783Z,39.9
2017-12-19T02:10:03.100Z,40
2017-12-19T02:11:04.420Z,40.4
2017-12-19T02:12:05.761Z,39.9
2017-12-19T02:13:07.656Z,40.4
2017-12-19T02:14:08.698Z,39.9
2017-12-19T02:15:10.593Z,40.3
2017-12-19T02:16:12.495Z,40.4
2017-12-19T02:17:14.439Z,40
2017-12-19T02:18:16.049Z,39.5
2017-12-19T02:19:17.982Z,39.7
2017-12-19T02:20:19.580Z,40.3
2017-12-19T02:21:21.475Z,39.5
2017-12-19T02:22:22.797Z,39.7
2017-12-19T02:23:24.703Z,40.4
2017-12-19T02:24:26.305Z,39.6
2017-12-19T02:25:27.648Z,40.4
2017-12-19T02:26:29.264Z,39.5
2017-12-19T02:27:30.880Z,40.4
2017-12-19T02:28:32.499Z,40
2017-12-19T02:29:34.394Z,40.1
2017-12-19T02:30:36.071Z,39.9
2017-12-19T02:31:37.955Z,39.5
2017-12-19T02:32:39.580Z,39.9
2017-12-19T02:33:41.478Z,40.5
2017-12-19T02:34:43.374Z,39.9
2017-12-19T02:35:44.989Z,40.4
2017-12-19T02:36:46.883Z,39.5
2017-12-19T02:37:48.775Z,39.6
2017-12-19T02:38:50.676Z,40.4
2017-12-19T02:39:52.007Z,40.1
2017-12-19T02:40:53.624Z,39.9
2017-12-19T02:41:55.245Z,39.9
2017-12-19T02:42:56.841Z,40.4
2017-12-19T02:43:58.460Z,39.7
2017-12-19T02:44:59.803Z,39.7
2017-12-19T02:46:01.419Z,40
2017-12-19T02:47:03.012Z,40.2
2017-12-19T02:48:04.631Z,40
2017-12-19T02:49:05.696Z,40.1
2017-12-19T02:50:07.290Z,40.4
2017-12-19T02:51:08.907Z,39.9
2017-12-19T02:52:10.506Z,39.9
2017-12-19T02:53:12.122Z,39.5
2017-12-19T02:54:13.785Z,39.9
2017-12-19T02:55:15.403Z,40
2017-12-19T02:56:16.729Z,40.4
2017-12-19T02:57:18.327Z,40.5
2017-12-19T02:58:19.948Z,40
2017-12-19T02:59:21.844Z,39.9
2017-12-19T03:00:22.887Z,40.2
2017-12-19T03:01:24.206Z,40
2017-12-19T03:02:26.146Z,40.1
2017-12-19T03:03:28.042Z,40
2017-12-19T03:04:28.803Z,39.9
2017-12-19T03:05:30.698Z,40.1
2017-12-19T03:06:32.621Z,39.6
2017-12-19T03:07:34.516Z,40
2017-12-19T03:08:36.411Z,39.6
2017-12-19T03:09:38.306Z,40
2017-12-19T03:10:39.925Z,40.1
2017-12-19T03:11:41.546Z,40.2
2017-12-19T03:12:43.439Z,40.2
2017-12-19T03:13:45.333Z,40
2017-12-19T03:14:46.952Z,40
2017-12-19T03:15:48.570Z,39.9
2017-12-19T03:16:49.911Z,39.5
2017-12-19T03:17:51.807Z,39.9
2017-12-19T03:18:53.702Z,40.1
2017-12-19T03:19:55.596Z,40.1
2017-12-19T03:20:57.214Z,39.5
2017-12-19T03:21:58.535Z,40.4
2017-12-19T03:22:59.853Z,39.7
2017-12-19T03:24:01.750Z,40
2017-12-19T03:25:03.347Z,40.1
2017-12-19T03:26:04.966Z,39.7
2017-12-19T03:27:06.858Z,40
2017-12-19T03:28:08.475Z,40
2017-12-19T03:29:10.368Z,39.7
2017-12-19T03:30:12.265Z,40
2017-12-19T03:31:14.163Z,39.6
2017-12-19T03:32:16.056Z,39.9
2017-12-19T03:33:17.951Z,39.7
2017-12-19T03:34:19.569Z,40
2017-12-19T03:35:20.899Z,39.5
2017-12-19T03:36:22.790Z,39.7
2017-12-19T03:37:24.685Z,39.9
2017-12-19T03:38:26.614Z,39.8
2017-12-19T03:39:28.201Z,39.5
2017-12-19T03:40:29.796Z,39.7
2017-12-19T03:41:31.695Z,39.7
2017-12-19T03:42:33.034Z,40
2017-12-19T03:43:34.931Z,39.9
2017-12-19T03:44:36.824Z,39.9
2017-12-19T03:45:38.168Z,39.7
2017-12-19T03:46:40.063Z,40
2017-12-19T03:47:41.661Z,40
2017-12-19T03:48:42.979Z,39.6
2017-12-19T03:49:44.872Z,40
2017-12-19T03:50:46.490Z,39.7
2017-12-19T03:51:48.138Z,39.9
2017-12-19T03:52:49.180Z,40
2017-12-19T03:53:51.075Z,39.9
2017-12-19T03:54:52.396Z,39.8
2017-12-19T03:55:53.736Z,39.6
2017-12-19T03:56:55.055Z,39.7
2017-12-19T03:57:56.674Z,39.7
2017-12-19T03:58:57.992Z,39.7
2017-12-19T03:59:59.586Z,39.7
2017-12-19T04:01:01.491Z,40
2017-12-19T04:02:03.110Z,40
2017-12-19T04:03:04.728Z,39.7
2017-12-19T04:04:05.793Z,39.7
2017-12-19T04:05:07.412Z,39.9
2017-12-19T04:06:09.032Z,39.8
2017-12-19T04:07:10.352Z,39.7
2017-12-19T04:08:11.670Z,39.9
2017-12-19T04:09:13.564Z,39.9
2017-12-19T04:10:15.461Z,39.9
2017-12-19T04:11:17.105Z,39.6
2017-12-19T04:12:18.706Z,39.7
2017-12-19T04:13:20.593Z,39.8
2017-12-19T04:14:22.487Z,39.6
2017-12-19T04:15:24.381Z,39.9
2017-12-19T04:16:25.420Z,40
2017-12-19T04:17:27.017Z,39.9
2017-12-19T04:18:28.359Z,39.9
2017-12-19T04:19:29.678Z,40
2017-12-19T04:20:31.573Z,39.8
2017-12-19T04:21:33.194Z,39.9
2017-12-19T04:22:34.237Z,39.7
2017-12-19T04:23:35.556Z,40.2
2017-12-19T04:24:37.505Z,40
2017-12-19T04:25:39.130Z,39.7
2017-12-19T04:26:40.742Z,40
2017-12-19T04:27:42.058Z,39.9
2017-12-19T04:28:43.955Z,40
2017-12-19T04:29:45.849Z,39.6
2017-12-19T04:30:47.744Z,40.2
2017-12-19T04:31:49.064Z,39.7
2017-12-19T04:32:50.960Z,39.9
2017-12-19T04:33:52.576Z,39.7
2017-12-19T04:34:54.470Z,40.4
2017-12-19T04:35:56.070Z,39.9
2017-12-19T04:36:57.685Z,39.7
2017-12-19T04:37:59.304Z,39.9
2017-12-19T04:39:00.901Z,39.8
2017-12-19T04:40:02.520Z,39.8
2017-12-19T04:41:04.112Z,39.8
2017-12-19T04:42:06.009Z,39.9
2017-12-19T04:43:07.627Z,39.8
2017-12-19T04:44:09.520Z,39.9
2017-12-19T04:45:11.137Z,39.9
2017-12-19T04:46:12.482Z,39.9
2017-12-19T04:47:14.097Z,39.8
2017-12-19T04:48:15.415Z,40.2
2017-12-19T04:49:17.031Z,39.8
2017-12-19T04:50:18.928Z,39.8
2017-12-19T04:51:20.831Z,39.8
2017-12-19T04:52:22.734Z,39.9
2017-12-19T04:53:24.345Z,40
2017-12-19T04:54:26.243Z,39.9
2017-12-19T04:55:27.582Z,40
2017-12-19T04:56:29.488Z,39.9
2017-12-19T04:57:31.385Z,39.8
2017-12-19T04:58:33.037Z,40
2017-12-19T04:59:34.078Z,39.8
2017-12-19T05:00:35.701Z,39.8
2017-12-19T05:01:37.318Z,39.7
2017-12-19T05:02:38.649Z,39.8
2017-12-19T05:03:40.544Z,39.8
2017-12-19T05:04:42.142Z,40.1
2017-12-19T05:05:43.480Z,39.8
2017-12-19T05:06:45.098Z,39.7
2017-12-19T05:07:46.717Z,39.8
2017-12-19T05:08:47.784Z,39.9
2017-12-19T05:09:49.676Z,39.8
2017-12-19T05:10:50.998Z,39.9
2017-12-19T05:11:52.896Z,39.8
2017-12-19T05:12:54.213Z,39.8
2017-12-19T05:13:55.255Z,39.9
2017-12-19T05:14:56.597Z,39.8
2017-12-19T05:15:58.216Z,39.9
2017-12-19T05:16:59.553Z,39.8
2017-12-19T05:18:01.150Z,39.7
2017-12-19T05:19:03.043Z,39.9
2017-12-19T05:20:04.641Z,39.8
2017-12-19T05:21:06.259Z,39.9
2017-12-19T05:22:07.854Z,39.9
2017-12-19T05:23:09.472Z,39.8
2017-12-19T05:24:11.367Z,39.9
2017-12-19T05:25:13.263Z,39.9
2017-12-19T05:26:14.880Z,40
2017-12-19T05:27:16.476Z,39.8
2017-12-19T05:28:18.071Z,40
2017-12-19T05:29:19.689Z,39.9
2017-12-19T05:30:21.585Z,39.8
2017-12-19T05:31:23.182Z,39.9
2017-12-19T05:32:25.077Z,39.9
2017-12-19T05:33:26.970Z,39.9
2017-12-19T05:34:28.567Z,39.9
2017-12-19T05:35:30.461Z,39.9
2017-12-19T05:36:32.054Z,39.9
2017-12-19T05:37:33.951Z,39.8
2017-12-19T05:38:35.568Z,39.9
2017-12-19T05:39:37.186Z,39.9
2017-12-19T05:40:38.533Z,39.8
2017-12-19T05:41:39.866Z,39.8
2017-12-19T05:42:41.509Z,39.9
2017-12-19T05:43:43.405Z,39.8
2017-12-19T05:44:44.745Z,39.9
2017-12-19T05:45:46.366Z,39.9
2017-12-19T05:46:48.260Z,39.9
2017-12-19T05:47:50.156Z,39.8
2017-12-19T05:48:51.750Z,39.9
2017-12-19T05:49:53.648Z,39.9
2017-12-19T05:50:54.988Z,39.9
2017-12-19T05:51:56.892Z,39.8
2017-12-19T05:52:58.514Z,39.9
2017-12-19T05:54:00.410Z,39.8
2017-12-19T05:55:02.025Z,39.9
2017-12-19T05:56:03.365Z,40
2017-12-19T05:57:04.985Z,39.9
2017-12-19T05:58:06.323Z,39.9
2017-12-19T05:59:08.222Z,39.9
2017-12-19T06:00:09.839Z,39.9
2017-12-19T06:01:11.460Z,39.6
2017-12-19T06:02:13.354Z,39.8
2017-12-19T06:03:15.249Z,39.9
2017-12-19T06:04:16.886Z,39.8
2017-12-19T06:05:18.564Z,39.7
2017-12-19T06:06:19.882Z,39.9
2017-12-19T06:07:21.478Z,39.9
2017-12-19T06:08:23.373Z,39.6
2017-12-19T06:09:24.993Z,39.8
2017-12-19T06:10:26.612Z,39.7
2017-12-19T06:11:28.233Z,39.8
2017-12-19T06:12:30.132Z,39.7
2017-12-19T06:13:31.759Z,39.9
2017-12-19T06:14:33.653Z,39.8
2017-12-19T06:15:34.995Z,39.9
2017-12-19T06:16:36.612Z,39.8
2017-12-19T06:17:38.209Z,39.8
2017-12-19T06:18:39.830Z,39.9
2017-12-19T06:19:41.448Z,39.9
2017-12-19T06:20:43.341Z,39.8
2017-12-19T06:21:44.968Z,39.8
2017-12-19T06:22:46.583Z,39.9
2017-12-19T06:23:47.905Z,39.9
2017-12-19T06:24:49.797Z,39.7
2017-12-19T06:25:51.693Z,39.8
2017-12-19T06:26:53.314Z,39.9
2017-12-19T06:27:55.209Z,40.3
2017-12-19T06:28:57.129Z,39.7
2017-12-19T06:29:58.761Z,39.8
2017-12-19T06:31:00.654Z,40
2017-12-19T06:32:02.549Z,39.7
2017-12-19T06:33:04.446Z,39.9
2017-12-19T06:34:06.063Z,39.9
2017-12-19T06:35:07.659Z,40.2
2017-12-19T06:36:09.285Z,39.9
2017-12-19T06:37:10.902Z,40
2017-12-19T06:38:12.219Z,40.2
2017-12-19T06:39:14.113Z,39.9
2017-12-19T06:40:15.430Z,39.5
2017-12-19T06:41:16.776Z,39.5
2017-12-19T06:42:17.837Z,39.6
2017-12-19T06:43:19.465Z,40.1
2017-12-19T06:44:20.786Z,40.4
2017-12-19T06:45:22.685Z,39.7
2017-12-19T06:46:24.305Z,39.5
2017-12-19T06:47:25.351Z,40.1
2017-12-19T06:48:26.673Z,40.3
2017-12-19T06:49:28.294Z,40.2
2017-12-19T06:50:29.892Z,39.9
2017-12-19T06:51:31.523Z,40.1
2017-12-19T06:52:32.865Z,39.9
2017-12-19T06:53:34.477Z,40.3
2017-12-19T06:54:36.374Z,40.4
2017-12-19T06:55:38.278Z,40.7
2017-12-19T06:56:40.178Z,40.7
2017-12-19T06:57:41.800Z,40.3
2017-12-19T06:58:43.705Z,40.1
2017-12-19T06:59:45.602Z,40.3
2017-12-19T07:00:47.498Z,40.1
2017-12-19T07:01:49.117Z,40.1
2017-12-19T07:02:50.721Z,40.6
2017-12-19T07:03:52.622Z,40.9
2017-12-19T07:04:54.521Z,40.9
2017-12-19T07:05:55.841Z,40.4
2017-12-19T07:06:57.186Z,41.1
2017-12-19T07:07:58.806Z,40.7
2017-12-19T07:09:00.709Z,40.8
2017-12-19T07:10:02.306Z,40.8
2017-12-19T07:11:03.929Z,40.5
2017-12-19T07:12:05.295Z,40.9
2017-12-19T07:13:07.040Z,40.9
2017-12-19T07:14:08.638Z,40.6
2017-12-19T07:15:10.534Z,40.6
2017-12-19T07:16:12.444Z,41
2017-12-19T07:17:14.359Z,40.9
2017-12-19T07:18:15.685Z,40.8
2017-12-19T07:19:17.308Z,40.9
2017-12-19T07:20:18.653Z,41.1
2017-12-19T07:21:20.253Z,40.7
2017-12-19T07:22:21.978Z,40.9
2017-12-19T07:23:23.880Z,40.7
2017-12-19T07:24:25.816Z,40.9
2017-12-19T07:25:27.423Z,41
2017-12-19T07:26:28.766Z,40.9
2017-12-19T07:27:30.387Z,40.9
2017-12-19T07:28:32.333Z,40.7
2017-12-19T07:29:33.659Z,40.6
2017-12-19T07:30:35.299Z,40.5
2017-12-19T07:31:37.200Z,40.8
2017-12-19T07:32:39.107Z,40.6
2017-12-19T07:33:41.051Z,40.5
2017-12-19T07:34:42.393Z,40.9
2017-12-19T07:35:44.018Z,40.9
2017-12-19T07:36:45.641Z,40.6
2017-12-19T07:37:47.263Z,40.6
2017-12-19T07:38:48.880Z,40.8
2017-12-19T07:39:50.024Z,41.1
2017-12-19T07:40:51.649Z,40.7
2017-12-19T07:41:53.547Z,40.9
2017-12-19T07:42:55.166Z,41.1
2017-12-19T07:43:56.233Z,40.6
2017-12-19T07:44:57.556Z,41.1
2017-12-19T07:45:59.456Z,40.6
2017-12-19T07:47:01.355Z,40.9
2017-12-19T07:48:02.955Z,40.5
2017-12-19T07:49:04.854Z,41.1
2017-12-19T07:50:06.293Z,40.7
2017-12-19T07:51:07.565Z,40.6
2017-12-19T07:52:09.181Z,40.6
2017-12-19T07:53:10.220Z,40.6
2017-12-19T07:54:11.561Z,41.1
2017-12-19T07:55:12.880Z,41
2017-12-19T07:56:14.221Z,40.6
2017-12-19T07:57:15.269Z,40.7
2017-12-19T07:58:17.164Z,40.6
2017-12-19T07:59:18.501Z,40.7
2017-12-19T08:00:19.844Z,41
2017-12-19T08:01:20.883Z,40.6
2017-12-19T08:02:22.778Z,40.9
2017-12-19T08:03:24.414Z,40.6
2017-12-19T08:04:26.021Z,40.6
2017-12-19T08:05:27.647Z,40.7
2017-12-19T08:06:28.971Z,40.6
2017-12-19T08:07:30.309Z,41.1
2017-12-19T08:08:31.910Z,40.9
2017-12-19T08:09:33.810Z,40.6
2017-12-19T08:10:35.705Z,40.7
2017-12-19T08:11:37.603Z,40.6
2017-12-19T08:12:39.224Z,40.7
2017-12-19T08:13:41.122Z,41
2017-12-19T08:14:43.014Z,40.7
2017-12-19T08:15:44.636Z,40.6
2017-12-19T08:16:46.263Z,40.7
2017-12-19T08:17:47.880Z,40.6
2017-12-19T08:18:49.479Z,40.6
2017-12-19T08:19:50.852Z,40.7
2017-12-19T08:20:52.749Z,40.7
2017-12-19T08:21:54.379Z,41
2017-12-19T08:22:56.481Z,40.5
2017-12-19T08:23:58.382Z,40.9
2017-12-19T08:25:00.276Z,40.8
2017-12-19T08:26:02.168Z,40.5
2017-12-19T08:27:04.063Z,40.5
2017-12-19T08:28:05.723Z,40.6
2017-12-19T08:29:07.344Z,40.5
2017-12-19T08:30:08.960Z,41
2017-12-19T08:31:10.304Z,40.8
2017-12-19T08:32:11.941Z,40.8
2017-12-19T08:33:13.286Z,41.1
2017-12-19T08:34:14.905Z,40.8
2017-12-19T08:35:16.523Z,40.9
2017-12-19T08:36:18.137Z,41.1
2017-12-19T08:37:19.740Z,41
2017-12-19T08:38:21.640Z,40.9
2017-12-19T08:39:23.535Z,41
2017-12-19T08:40:25.157Z,41.1
2017-12-19T08:41:26.474Z,41.1
2017-12-19T08:42:27.792Z,41.1
2017-12-19T08:43:29.390Z,41.1
2017-12-19T08:44:31.001Z,41.1
2017-12-19T08:45:32.343Z,41.1
2017-12-19T08:46:33.963Z,41.1
2017-12-19T08:47:35.282Z,41.4
2017-12-19T08:48:36.881Z,41.2
2017-12-19T08:49:37.956Z,41.2
2017-12-19T08:50:39.044Z,41.3
2017-12-19T08:51:40.656Z,41.3
2017-12-19T08:52:42.258Z,41.3
2017-12-19T08:53:43.582Z,41.5
2017-12-19T08:54:45.474Z,41.7
2017-12-19T08:55:47.375Z,41.2
2017-12-19T08:56:49.269Z,41.4
2017-12-19T08:57:50.313Z,41.5
2017-12-19T08:58:51.638Z,41.4
2017-12-19T08:59:53.257Z,41.4
2017-12-19T09:00:54.878Z,41.4
2017-12-19T09:01:56.494Z,41.6
2017-12-19T09:02:58.392Z,41.4
2017-12-19T09:04:00.294Z,41.4
2017-12-19T09:05:01.911Z,41.5
2017-12-19T09:06:02.965Z,41.5
2017-12-19T09:07:04.571Z,41.5
2017-12-19T09:08:06.472Z,41.6
2017-12-19T09:09:07.804Z,41.5
2017-12-19T09:10:09.523Z,41.6
2017-12-19T09:11:10.870Z,41.3
2017-12-19T09:12:12.491Z,41.5
2017-12-19T09:13:13.825Z,41.4
2017-12-19T09:14:15.723Z,41.5
2017-12-19T09:15:17.724Z,41.4
2017-12-19T09:16:19.323Z,41.3
2017-12-19T09:17:20.944Z,41.4
2017-12-19T09:18:22.582Z,41.4
2017-12-19T09:19:23.924Z,41.4
2017-12-19T09:20:25.614Z,41.5
2017-12-19T09:21:27.239Z,41.7
2017-12-19T09:22:28.860Z,41.7
2017-12-19T09:23:30.485Z,41.6
2017-12-19T09:24:31.825Z,41.9
2017-12-19T09:25:33.723Z,41.7
2017-12-19T09:26:35.069Z,41.6
2017-12-19T09:27:36.971Z,41.7
2017-12-19T09:28:38.329Z,41.6
2017-12-19T09:29:39.640Z,41.6
2017-12-19T09:30:41.304Z,41.4
2017-12-19T09:31:43.200Z,41.6
2017-12-19T09:32:45.103Z,41.9
2017-12-19T09:33:46.722Z,41.8
2017-12-19T09:34:48.342Z,41.9
2017-12-19T09:35:50.016Z,41.7
2017-12-19T09:36:51.624Z,41.6
2017-12-19T09:37:53.250Z,41.7
2017-12-19T09:38:54.873Z,41.7
2017-12-19T09:39:56.486Z,42.1
2017-12-19T09:40:58.106Z,41.9
2017-12-19T09:41:59.730Z,41.9
2017-12-19T09:43:01.332Z,41.9
2017-12-19T09:44:02.952Z,41.8
2017-12-19T09:45:04.553Z,41.9
2017-12-19T09:46:06.450Z,41.8
2017-12-19T09:47:08.347Z,41.7
2017-12-19T09:48:09.965Z,41.7
2017-12-19T09:49:11.568Z,41.6
2017-12-19T09:50:13.466Z,41.9
2017-12-19T09:51:15.366Z,41.7
2017-12-19T09:52:16.987Z,41.7
2017-12-19T09:53:18.028Z,41.4
2017-12-19T09:54:19.649Z,41.6
2017-12-19T09:55:21.321Z,41.4
2017-12-19T09:56:22.943Z,41.3
2017-12-19T09:57:24.839Z,41.4
2017-12-19T09:58:26.459Z,41.3
2017-12-19T09:59:28.355Z,41.4
2017-12-19T10:00:29.961Z,41.3
2017-12-19T10:01:31.595Z,41.2
2017-12-19T10:02:33.497Z,41.3
2017-12-19T10:03:35.104Z,41.4
2017-12-19T10:04:36.724Z,41.6
2017-12-19T10:05:38.347Z,41.4
2017-12-19T10:06:39.968Z,41.2
2017-12-19T10:07:41.868Z,41.6
2017-12-19T10:08:43.468Z,41.6
2017-12-19T10:09:44.509Z,41.6
2017-12-19T10:10:46.130Z,41.6
2017-12-19T10:11:47.737Z,41.4
2017-12-19T10:12:49.367Z,41.6
2017-12-19T10:13:50.982Z,41.2
2017-12-19T10:14:52.609Z,41.3
2017-12-19T10:15:55.690Z,41.7
2017-12-19T10:16:57.102Z,41.5
2017-12-19T10:17:58.975Z,41.4
2017-12-19T10:19:01.114Z,41.4
2017-12-19T10:20:05.363Z,41.3
2017-12-19T10:21:07.032Z,41.2
2017-12-19T10:22:09.298Z,41.6
2017-12-19T10:23:11.327Z,41.6
2017-12-19T10:24:12.979Z,41.3
2017-12-19T10:25:14.945Z,41.6
2017-12-19T10:26:16.846Z,41.3
2017-12-19T10:27:18.167Z,41.6
2017-12-19T10:28:19.767Z,41.4
2017-12-19T10:29:21.386Z,41.4
2017-12-19T10:30:23.005Z,41.7
2017-12-19T10:31:24.906Z,41.2
2017-12-19T10:32:26.814Z,41.7
2017-12-19T10:33:28.724Z,41.7
2017-12-19T10:34:30.620Z,41.4
2017-12-19T10:35:32.253Z,41.9
2017-12-19T10:36:33.289Z,41.7
2017-12-19T10:37:34.887Z,41.6
2017-12-19T10:38:36.511Z,41.6
2017-12-19T10:39:37.581Z,41.7
2017-12-19T10:40:39.182Z,41.8
2017-12-19T10:41:40.782Z,41.7
2017-12-19T10:42:42.410Z,41.9
2017-12-19T10:43:44.030Z,41.8
2017-12-19T10:44:45.653Z,41.9
2017-12-19T10:45:47.550Z,41.9
2017-12-19T10:46:49.449Z,41.9
2017-12-19T10:47:51.073Z,41.8
2017-12-19T10:48:52.694Z,42.2
2017-12-19T10:49:54.590Z,41.9
2017-12-19T10:50:56.212Z,41.8
2017-12-19T10:51:57.836Z,42
2017-12-19T10:52:59.733Z,41.9
2017-12-19T10:54:01.076Z,41.9
2017-12-19T10:55:02.697Z,42.1
2017-12-19T10:56:03.818Z,41.8
2017-12-19T10:57:05.793Z,42.1
2017-12-19T10:58:07.738Z,41.6
2017-12-19T10:59:09.061Z,42
2017-12-19T11:00:10.959Z,42.3
2017-12-19T11:01:12.578Z,42.1
2017-12-19T11:02:14.175Z,42.1
2017-12-19T11:03:15.796Z,42.1
2017-12-19T11:04:17.419Z,42
2017-12-19T11:05:19.044Z,42.1
2017-12-19T11:06:20.387Z,42.1
2017-12-19T11:07:21.711Z,42.3
2017-12-19T11:08:23.610Z,42.1
2017-12-19T11:09:25.230Z,42.3
2017-12-19T11:10:26.846Z,42.2
2017-12-19T11:11:28.463Z,42
2017-12-19T11:12:30.362Z,42.2
2017-12-19T11:13:32.260Z,42.1
2017-12-19T11:14:34.161Z,42.2
2017-12-19T11:15:35.780Z,42.2
2017-12-19T11:16:37.388Z,42.2
2017-12-19T11:17:39.286Z,42.1
2017-12-19T11:18:41.185Z,42.1
2017-12-19T11:19:43.085Z,42
2017-12-19T11:20:44.412Z,42.1
2017-12-19T11:21:46.340Z,42.2
2017-12-19T11:22:47.990Z,42.2
2017-12-19T11:23:49.613Z,42.1
2017-12-19T11:24:51.513Z,42.5
2017-12-19T11:25:52.834Z,42.2
2017-12-19T11:26:54.736Z,42.1
2017-12-19T11:27:56.356Z,42.1
2017-12-19T11:28:58.296Z,42.5
2017-12-19T11:29:59.917Z,42.3
2017-12-19T11:31:01.537Z,42.2
2017-12-19T11:32:03.435Z,42.1
2017-12-19T11:33:05.337Z,42.4
2017-12-19T11:34:06.959Z,42.1
2017-12-19T11:35:08.332Z,42.1
2017-12-19T11:36:10.118Z,42.3
2017-12-19T11:37:12.020Z,42.2
2017-12-19T11:38:13.643Z,42.1
2017-12-19T11:39:15.300Z,42.1
2017-12-19T11:40:16.664Z,42.2
2017-12-19T11:41:18.008Z,42.1
2017-12-19T11:42:19.907Z,42.3
2017-12-19T11:43:21.506Z,42.3
2017-12-19T11:44:23.163Z,42.5
2017-12-19T11:45:24.805Z,42.1
2017-12-19T11:46:27.177Z,42.4
2017-12-19T11:47:28.505Z,42.1
2017-12-19T11:48:30.129Z,42.4
2017-12-19T11:49:31.478Z,42.4
2017-12-19T11:50:32.960Z,42.4
2017-12-19T11:51:34.637Z,42.3
2017-12-19T11:52:36.544Z,42.4
2017-12-19T11:53:38.477Z,42.1
2017-12-19T11:54:40.125Z,42.1
2017-12-19T11:55:41.476Z,42.5
2017-12-19T11:56:43.101Z,42.4
2017-12-19T11:57:44.721Z,42.4
2017-12-19T11:58:46.623Z,42.2
2017-12-19T11:59:48.260Z,42
2017-12-19T12:00:49.884Z,42.2
2017-12-19T12:01:51.226Z,42.2
2017-12-19T12:02:52.846Z,42.1
2017-12-19T12:03:54.466Z,42.2
2017-12-19T12:04:55.533Z,42.2
2017-12-19T12:05:57.434Z,42.2
2017-12-19T12:06:59.331Z,42.3
2017-12-19T12:08:01.228Z,42.3
2017-12-19T12:09:03.200Z,42.2
2017-12-19T12:10:04.819Z,42.1
2017-12-19T12:11:06.419Z,42.3
2017-12-19T12:12:07.736Z,42.2
2017-12-19T12:13:09.355Z,42.1
2017-12-19T12:14:10.979Z,42.4
2017-12-19T12:15:12.610Z,42.1
2017-12-19T12:16:13.671Z,42.1
2017-12-19T12:17:15.299Z,42.1
2017-12-19T12:18:16.964Z,42.3
2017-12-19T12:19:18.850Z,42.3
2017-12-19T12:20:20.449Z,42.1
2017-12-19T12:21:21.869Z,42.3
2017-12-19T12:22:23.763Z,42.2
2017-12-19T12:23:25.362Z,42.1
2017-12-19T12:24:26.978Z,42.5
2017-12-19T12:25:28.597Z,42
2017-12-19T12:26:30.197Z,42.1
2017-12-19T12:27:31.307Z,42.4
2017-12-19T12:28:33.205Z,42.5
2017-12-19T12:29:34.525Z,42.5
2017-12-19T12:30:35.841Z,42.4
2017-12-19T12:31:37.738Z,42.3
2017-12-19T12:32:39.056Z,42.3
2017-12-19T12:33:40.677Z,42.5
2017-12-19T12:34:42.575Z,42.4
2017-12-19T12:35:43.635Z,42.5
2017-12-19T12:36:45.237Z,42.2
2017-12-19T12:37:47.130Z,42.1
2017-12-19T12:38:48.198Z,42
2017-12-19T12:39:50.092Z,42.3
2017-12-19T12:40:51.989Z,42.3
2017-12-19T12:41:53.606Z,42.4
2017-12-19T12:42:54.940Z,42.5
2017-12-19T12:43:56.260Z,42.3
2017-12-19T12:44:58.281Z,42.3
2017-12-19T12:45:59.689Z,42.2
2017-12-19T12:47:01.308Z,42.3
2017-12-19T12:48:02.632Z,42.1
2017-12-19T12:49:04.526Z,42.3
2017-12-19T12:50:06.144Z,42.2
2017-12-19T12:51:07.766Z,42.5
2017-12-19T12:52:09.662Z,42.3
2017-12-19T12:53:11.557Z,42.3
2017-12-19T12:54:13.179Z,42.3
2017-12-19T12:55:14.549Z,42.2
2017-12-19T12:56:16.444Z,42.2
2017-12-19T12:57:17.763Z,42.3
2017-12-19T12:58:19.659Z,42.3
2017-12-19T12:59:21.551Z,42
2017-12-19T13:00:23.452Z,42
2017-12-19T13:01:25.069Z,42.3
2017-12-19T13:02:26.387Z,42.2
2017-12-19T13:03:27.730Z,42.2
2017-12-19T13:04:29.623Z,42.2
2017-12-19T13:05:31.246Z,42.3
2017-12-19T13:06:32.634Z,42.4
2017-12-19T13:07:34.533Z,42.3
2017-12-19T13:08:36.427Z,42.2
2017-12-19T13:09:38.324Z,42.1
2017-12-19T13:10:39.645Z,42.3
2017-12-19T13:11:41.273Z,42.2
2017-12-19T13:12:42.894Z,42.5
2017-12-19T13:13:44.215Z,42.4
2017-12-19T13:14:45.837Z,42.5
2017-12-19T13:15:47.455Z,42.4
2017-12-19T13:16:49.076Z,42.5
2017-12-19T13:17:50.973Z,42.1
2017-12-19T13:18:52.571Z,42.5
2017-12-19T13:19:54.466Z,42.1
2017-12-19T13:20:56.094Z,42.1
2017-12-19T13:21:57.987Z,42.2
2017-12-19T13:22:59.608Z,42.1
2017-12-19T13:24:00.926Z,42.2
2017-12-19T13:25:02.524Z,42
2017-12-19T13:26:04.419Z,42.1
2017-12-19T13:27:06.016Z,42.2
2017-12-19T13:28:07.359Z,42.2
2017-12-19T13:29:08.705Z,42.1
2017-12-19T13:30:10.024Z,42.1
2017-12-19T13:31:11.344Z,42.3
2017-12-19T13:32:12.966Z,42.3
2017-12-19T13:33:14.305Z,42.1
2017-12-19T13:34:15.652Z,42.3
2017-12-19T13:35:17.271Z,42.1
2017-12-19T13:36:18.868Z,42.1
2017-12-19T13:37:20.486Z,42.3
2017-12-19T13:38:22.386Z,42.3
2017-12-19T13:39:23.736Z,42.2
2017-12-19T13:40:25.357Z,42.6
2017-12-19T13:41:26.698Z,42.1
2017-12-19T13:42:28.297Z,42.4
2017-12-19T13:43:29.977Z,42.4
2017-12-19T13:44:31.881Z,42.4
2017-12-19T13:45:32.920Z,42.2
2017-12-19T13:46:34.862Z,42.3
2017-12-19T13:47:36.826Z,42.4